aviador You're here:

KPNS Decoded Metar

PENSACOLA in FL, USA
Report Time2018-01-18 20:53:00
UTC Time2018-01-18 21:42:38
Flight Rules vfr VFR
Wind330° at 10 Gusting to 15 kt
W.Decomp.*RWY 35: 9.5 kt HW 3.1 kt LCW
RWY 26: 3.1 kt HW 9.5 kt RCW
W.Rank330° ranks 12
Current wind is above 330° avg. (7.9)
Visibility9999 m
Phenomena:N/A
Clouds:N/A
Expected CloudBase > 7,600 ft AGL from Temp-Dew spread
CeilingNone
Temp08°C (ISA -7)
Dew Point-11°C (25% RH)
AAT1.3°C
QNH1030 hPa
Density Alt-1,217 ft
Elevation125 ft
Report Wrong Elevation
Raw Report
METAR KPNS 182053Z 33010G15KT 10SM CLR 08/M11 A3041 RMK AO2 SLP299
T00831111 56027=

Extra information for KPNS:More info

Metar Taf Metar & Taf Last 4 Metars F.Rules Stats Wind Profile Meteogram Temp Stats Airport Information Weather charts Add Link Nearby VenuesMetar ALERT Operation Metar Decoded Social comments

AIRNAV info for KPNS